sensor_id;sensor_type;location;lat;lon;timestamp;temperature;humidity
19862;DHT22;10093;48.148;8.542;2023-02-26T00:00:29;-2.70;99.90
19862;DHT22;10093;48.148;8.542;2023-02-26T00:02:54;-2.80;99.90
19862;DHT22;10093;48.148;8.542;2023-02-26T00:05:20;-2.90;99.90
19862;DHT22;10093;48.148;8.542;2023-02-26T00:07:46;-2.90;99.90
19862;DHT22;10093;48.148;8.542;2023-02-26T00:10:13;-3.10;99.90
19862;DHT22;10093;48.148;8.542;2023-02-26T00:12:41;-3.00;99.90
19862;DHT22;10093;48.148;8.542;2023-02-26T00:15:09;-3.10;99.90
19862;DHT22;10093;48.148;8.542;2023-02-26T00:18:06;-3.10;99.90
19862;DHT22;10093;48.148;8.542;2023-02-26T00:20:32;-3.00;99.90
19862;DHT22;10093;48.148;8.542;2023-02-26T00:22:58;-2.80;99.90
19862;DHT22;10093;48.148;8.542;2023-02-26T00:25:24;-2.80;99.90
19862;DHT22;10093;48.148;8.542;2023-02-26T00:27:50;-2.60;99.90
19862;DHT22;10093;48.148;8.542;2023-02-26T00:30:16;-2.80;99.90
19862;DHT22;10093;48.148;8.542;2023-02-26T00:32:42;-2.80;99.90
19862;DHT22;10093;48.148;8.542;2023-02-26T00:35:12;-2.70;99.90
19862;DHT22;10093;48.148;8.542;2023-02-26T00:38:00;-2.70;99.90
19862;DHT22;10093;48.148;8.542;2023-02-26T00:40:46;-2.80;99.90
19862;DHT22;10093;48.148;8.542;2023-02-26T00:43:19;-2.60;99.90
19862;DHT22;10093;48.148;8.542;2023-02-26T00:56:42;-2.70;99.90
19862;DHT22;10093;48.148;8.542;2023-02-26T00:59:08;-2.50;99.90
19862;DHT22;10093;48.148;8.542;2023-02-26T01:01:33;-2.40;99.90
19862;DHT22;10093;48.148;8.542;2023-02-26T01:03:59;-2.10;99.90
19862;DHT22;10093;48.148;8.542;2023-02-26T01:06:27;-2.10;99.90
19862;DHT22;10093;48.148;8.542;2023-02-26T01:11:34;-2.10;99.90
19862;DHT22;10093;48.148;8.542;2023-02-26T01:14:01;-2.30;99.90
19862;DHT22;10093;48.148;8.542;2023-02-26T01:16:30;-2.30;99.90
19862;DHT22;10093;48.148;8.542;2023-02-26T01:19:04;-2.30;99.90
19862;DHT22;10093;48.148;8.542;2023-02-26T01:21:36;-2.30;99.90
19862;DHT22;10093;48.148;8.542;2023-02-26T01:24:05;-2.40;99.90
19862;DHT22;10093;48.148;8.542;2023-02-26T01:26:32;-2.50;99.90
19862;DHT22;10093;48.148;8.542;2023-02-26T01:28:57;-2.60;99.90
19862;DHT22;10093;48.148;8.542;2023-02-26T01:34:05;-2.60;99.90
19862;DHT22;10093;48.148;8.542;2023-02-26T01:36:42;-2.60;99.90
19862;DHT22;10093;48.148;8.542;2023-02-26T01:41:51;-2.50;99.90
19862;DHT22;10093;48.148;8.542;2023-02-26T01:50:25;-2.60;99.90
19862;DHT22;10093;48.148;8.542;2023-02-26T01:55:43;-2.30;99.90
19862;DHT22;10093;48.148;8.542;2023-02-26T01:58:10;-2.40;99.90
19862;DHT22;10093;48.148;8.542;2023-02-26T02:00:36;-2.20;99.90
19862;DHT22;10093;48.148;8.542;2023-02-26T02:03:02;-2.40;99.90
19862;DHT22;10093;48.148;8.542;2023-02-26T02:05:35;-2.10;99.90
19862;DHT22;10093;48.148;8.542;2023-02-26T02:08:03;-2.40;99.90
19862;DHT22;10093;48.148;8.542;2023-02-26T02:10:29;-2.30;99.90
19862;DHT22;10093;48.148;8.542;2023-02-26T02:15:41;-2.20;99.90
19862;DHT22;10093;48.148;8.542;2023-02-26T02:18:37;-2.20;99.90
19862;DHT22;10093;48.148;8.542;2023-02-26T02:23:46;-2.50;99.90
19862;DHT22;10093;48.148;8.542;2023-02-26T02:26:39;-2.60;99.90
19862;DHT22;10093;48.148;8.542;2023-02-26T02:35:10;-2.10;99.90
19862;DHT22;10093;48.148;8.542;2023-02-26T02:37:28;-2.10;99.90
19862;DHT22;10093;48.148;8.542;2023-02-26T02:40:05;-2.10;99.90
19862;DHT22;10093;48.148;8.542;2023-02-26T02:42:45;-2.00;99.90
19862;DHT22;10093;48.148;8.542;2023-02-26T02:45:20;-2.20;99.90
19862;DHT22;10093;48.148;8.542;2023-02-26T02:47:51;-2.30;99.90
19862;DHT22;10093;48.148;8.542;2023-02-26T02:53:23;-2.20;99.90
19862;DHT22;10093;48.148;8.542;2023-02-26T02:56:03;-2.20;99.90
19862;DHT22;10093;48.148;8.542;2023-02-26T02:58:35;-2.30;99.90
19862;DHT22;10093;48.148;8.542;2023-02-26T03:01:05;-2.50;99.90
19862;DHT22;10093;48.148;8.542;2023-02-26T03:06:26;-2.70;99.90
19862;DHT22;10093;48.148;8.542;2023-02-26T03:08:53;-2.80;99.90
19862;DHT22;10093;48.148;8.542;2023-02-26T03:11:20;-2.90;99.90
19862;DHT22;10093;48.148;8.542;2023-02-26T03:13:46;-2.80;99.90
19862;DHT22;10093;48.148;8.542;2023-02-26T03:26:59;-3.40;99.90
19862;DHT22;10093;48.148;8.542;2023-02-26T03:32:13;-3.40;99.90
19862;DHT22;10093;48.148;8.542;2023-02-26T03:34:49;-3.20;99.90
19862;DHT22;10093;48.148;8.542;2023-02-26T03:37:41;-3.00;99.90
19862;DHT22;10093;48.148;8.542;2023-02-26T03:40:14;-3.10;99.90
19862;DHT22;10093;48.148;8.542;2023-02-26T03:42:54;-3.00;99.90
19862;DHT22;10093;48.148;8.542;2023-02-26T03:45:27;-2.90;99.90
19862;DHT22;10093;48.148;8.542;2023-02-26T03:47:55;-2.90;99.90
19862;DHT22;10093;48.148;8.542;2023-02-26T03:50:50;-2.90;99.90
19862;DHT22;10093;48.148;8.542;2023-02-26T03:53:24;-2.70;99.90
19862;DHT22;10093;48.148;8.542;2023-02-26T03:56:33;-3.00;99.90
19862;DHT22;10093;48.148;8.542;2023-02-26T03:58:39;-3.10;99.90
19862;DHT22;10093;48.148;8.542;2023-02-26T04:01:11;-3.10;99.90
19862;DHT22;10093;48.148;8.542;2023-02-26T04:04:00;-3.30;99.90
19862;DHT22;10093;48.148;8.542;2023-02-26T04:06:28;-3.20;99.90
19862;DHT22;10093;48.148;8.542;2023-02-26T04:08:55;-3.30;99.90
19862;DHT22;10093;48.148;8.542;2023-02-26T04:11:21;-3.10;99.90
19862;DHT22;10093;48.148;8.542;2023-02-26T04:13:47;-3.00;99.90
19862;DHT22;10093;48.148;8.542;2023-02-26T04:16:14;-3.00;99.90
19862;DHT22;10093;48.148;8.542;2023-02-26T04:18:39;-2.80;99.90
19862;DHT22;10093;48.148;8.542;2023-02-26T04:21:05;-2.80;99.90
19862;DHT22;10093;48.148;8.542;2023-02-26T04:23:31;-2.90;99.90
19862;DHT22;10093;48.148;8.542;2023-02-26T04:25:57;-2.80;99.90
19862;DHT22;10093;48.148;8.542;2023-02-26T04:28:22;-2.90;99.90
19862;DHT22;10093;48.148;8.542;2023-02-26T04:30:48;-2.90;99.90
19862;DHT22;10093;48.148;8.542;2023-02-26T04:33:14;-3.00;99.90
19862;DHT22;10093;48.148;8.542;2023-02-26T04:35:41;-3.00;99.90
19862;DHT22;10093;48.148;8.542;2023-02-26T04:38:07;-3.30;99.90
19862;DHT22;10093;48.148;8.542;2023-02-26T04:40:32;-3.50;99.90
19862;DHT22;10093;48.148;8.542;2023-02-26T04:42:58;-3.60;99.90
19862;DHT22;10093;48.148;8.542;2023-02-26T04:45:23;-3.80;99.90
19862;DHT22;10093;48.148;8.542;2023-02-26T04:47:49;-3.80;99.90
19862;DHT22;10093;48.148;8.542;2023-02-26T04:50:15;-3.80;99.90
19862;DHT22;10093;48.148;8.542;2023-02-26T04:52:41;-3.90;99.90
19862;DHT22;10093;48.148;8.542;2023-02-26T04:55:07;-3.90;99.90
19862;DHT22;10093;48.148;8.542;2023-02-26T04:57:32;-3.90;99.90
19862;DHT22;10093;48.148;8.542;2023-02-26T04:59:58;-4.00;99.90
19862;DHT22;10093;48.148;8.542;2023-02-26T05:02:24;-3.90;99.90
19862;DHT22;10093;48.148;8.542;2023-02-26T05:04:49;-3.90;99.90
19862;DHT22;10093;48.148;8.542;2023-02-26T05:07:15;-4.00;99.90
19862;DHT22;10093;48.148;8.542;2023-02-26T05:09:40;-4.00;99.90
19862;DHT22;10093;48.148;8.542;2023-02-26T05:12:06;-4.00;99.90
19862;DHT22;10093;48.148;8.542;2023-02-26T05:14:32;-4.00;99.90
19862;DHT22;10093;48.148;8.542;2023-02-26T05:16:57;-4.00;99.90
19862;DHT22;10093;48.148;8.542;2023-02-26T05:19:23;-4.00;99.90
19862;DHT22;10093;48.148;8.542;2023-02-26T05:21:48;-4.00;99.90
19862;DHT22;10093;48.148;8.542;2023-02-26T05:24:15;-3.90;99.90
19862;DHT22;10093;48.148;8.542;2023-02-26T05:26:41;-4.00;99.90
19862;DHT22;10093;48.148;8.542;2023-02-26T05:29:06;-4.00;99.90
19862;DHT22;10093;48.148;8.542;2023-02-26T05:31:32;-4.10;99.90
19862;DHT22;10093;48.148;8.542;2023-02-26T05:33:58;-4.10;99.90
19862;DHT22;10093;48.148;8.542;2023-02-26T05:36:23;-4.10;99.90
19862;DHT22;10093;48.148;8.542;2023-02-26T05:38:49;-4.10;99.90
19862;DHT22;10093;48.148;8.542;2023-02-26T05:41:15;-4.10;99.90
19862;DHT22;10093;48.148;8.542;2023-02-26T05:43:40;-4.00;99.90
19862;DHT22;10093;48.148;8.542;2023-02-26T05:46:06;-4.10;99.90
19862;DHT22;10093;48.148;8.542;2023-02-26T05:48:32;-4.00;99.90
19862;DHT22;10093;48.148;8.542;2023-02-26T05:50:57;-3.90;99.90
19862;DHT22;10093;48.148;8.542;2023-02-26T05:53:23;-3.90;99.90
19862;DHT22;10093;48.148;8.542;2023-02-26T05:55:49;-3.80;99.90
19862;DHT22;10093;48.148;8.542;2023-02-26T05:58:14;-4.00;99.90
19862;DHT22;10093;48.148;8.542;2023-02-26T06:00:40;-3.70;99.90
19862;DHT22;10093;48.148;8.542;2023-02-26T06:03:06;-3.80;99.90
19862;DHT22;10093;48.148;8.542;2023-02-26T06:05:32;-3.90;99.90
19862;DHT22;10093;48.148;8.542;2023-02-26T06:07:58;-3.90;99.90
19862;DHT22;10093;48.148;8.542;2023-02-26T06:10:23;-3.90;99.90
19862;DHT22;10093;48.148;8.542;2023-02-26T06:12:49;-4.00;99.90
19862;DHT22;10093;48.148;8.542;2023-02-26T06:15:14;-4.10;99.90
19862;DHT22;10093;48.148;8.542;2023-02-26T06:17:40;-4.10;99.90
19862;DHT22;10093;48.148;8.542;2023-02-26T06:20:06;-4.10;99.90
19862;DHT22;10093;48.148;8.542;2023-02-26T06:22:32;-3.90;99.90
19862;DHT22;10093;48.148;8.542;2023-02-26T06:24:58;-3.90;99.90
19862;DHT22;10093;48.148;8.542;2023-02-26T06:27:24;-3.70;99.90
19862;DHT22;10093;48.148;8.542;2023-02-26T06:29:49;-3.50;99.90
19862;DHT22;10093;48.148;8.542;2023-02-26T06:32:15;-3.40;99.90
19862;DHT22;10093;48.148;8.542;2023-02-26T06:34:41;-3.60;99.90
19862;DHT22;10093;48.148;8.542;2023-02-26T06:37:06;-3.30;99.90
19862;DHT22;10093;48.148;8.542;2023-02-26T06:39:32;-2.90;99.90
19862;DHT22;10093;48.148;8.542;2023-02-26T06:41:57;-2.60;99.90
19862;DHT22;10093;48.148;8.542;2023-02-26T06:44:23;-2.70;99.90
19862;DHT22;10093;48.148;8.542;2023-02-26T06:46:49;-2.80;99.90
19862;DHT22;10093;48.148;8.542;2023-02-26T06:49:14;-2.80;99.90
19862;DHT22;10093;48.148;8.542;2023-02-26T06:51:40;-2.70;99.90
19862;DHT22;10093;48.148;8.542;2023-02-26T06:54:06;-2.60;99.90
19862;DHT22;10093;48.148;8.542;2023-02-26T06:56:31;-2.80;99.90
19862;DHT22;10093;48.148;8.542;2023-02-26T06:58:57;-2.70;99.90
19862;DHT22;10093;48.148;8.542;2023-02-26T07:01:22;-2.70;99.90
19862;DHT22;10093;48.148;8.542;2023-02-26T07:03:49;-3.00;99.90
19862;DHT22;10093;48.148;8.542;2023-02-26T07:06:15;-2.40;99.90
19862;DHT22;10093;48.148;8.542;2023-02-26T07:08:41;-1.80;99.90
19862;DHT22;10093;48.148;8.542;2023-02-26T07:11:07;-1.60;99.90
19862;DHT22;10093;48.148;8.542;2023-02-26T07:13:35;-2.30;99.90
19862;DHT22;10093;48.148;8.542;2023-02-26T07:16:02;-2.70;99.90
19862;DHT22;10093;48.148;8.542;2023-02-26T07:18:27;-3.10;99.90
19862;DHT22;10093;48.148;8.542;2023-02-26T07:20:53;-3.30;99.90
19862;DHT22;10093;48.148;8.542;2023-02-26T07:23:19;-3.40;99.90
19862;DHT22;10093;48.148;8.542;2023-02-26T07:25:44;-3.40;99.90
19862;DHT22;10093;48.148;8.542;2023-02-26T07:28:13;-3.40;99.90
19862;DHT22;10093;48.148;8.542;2023-02-26T07:30:38;-3.40;99.90
19862;DHT22;10093;48.148;8.542;2023-02-26T07:33:06;-3.20;99.90
19862;DHT22;10093;48.148;8.542;2023-02-26T07:35:32;-3.00;99.90
19862;DHT22;10093;48.148;8.542;2023-02-26T07:37:58;-3.00;99.90
19862;DHT22;10093;48.148;8.542;2023-02-26T07:40:23;-3.00;99.90
19862;DHT22;10093;48.148;8.542;2023-02-26T07:42:49;-3.00;99.90
19862;DHT22;10093;48.148;8.542;2023-02-26T07:45:15;-2.60;99.90
19862;DHT22;10093;48.148;8.542;2023-02-26T07:47:50;-2.60;99.90
19862;DHT22;10093;48.148;8.542;2023-02-26T07:50:16;-2.30;99.90
19862;DHT22;10093;48.148;8.542;2023-02-26T07:52:41;-2.50;99.90
19862;DHT22;10093;48.148;8.542;2023-02-26T07:55:09;-2.30;99.90
19862;DHT22;10093;48.148;8.542;2023-02-26T07:57:34;-2.30;99.90
19862;DHT22;10093;48.148;8.542;2023-02-26T08:00:00;-2.30;99.90
19862;DHT22;10093;48.148;8.542;2023-02-26T08:02:26;-1.20;99.90
19862;DHT22;10093;48.148;8.542;2023-02-26T08:04:51;-0.60;99.90
19862;DHT22;10093;48.148;8.542;2023-02-26T08:07:17;0.90;99.90
19862;DHT22;10093;48.148;8.542;2023-02-26T08:09:43;-1.10;99.90
19862;DHT22;10093;48.148;8.542;2023-02-26T08:12:09;-1.30;99.90
19862;DHT22;10093;48.148;8.542;2023-02-26T08:14:35;-2.00;99.90
19862;DHT22;10093;48.148;8.542;2023-02-26T08:17:00;-2.60;99.90
19862;DHT22;10093;48.148;8.542;2023-02-26T08:19:26;-2.90;99.90
19862;DHT22;10093;48.148;8.542;2023-02-26T08:21:51;-3.30;99.90
19862;DHT22;10093;48.148;8.542;2023-02-26T08:24:19;-3.10;99.90
19862;DHT22;10093;48.148;8.542;2023-02-26T08:26:45;-2.80;99.90
19862;DHT22;10093;48.148;8.542;2023-02-26T08:29:11;-2.90;99.90
19862;DHT22;10093;48.148;8.542;2023-02-26T08:31:36;-2.80;99.90
19862;DHT22;10093;48.148;8.542;2023-02-26T08:34:02;-2.20;99.90
19862;DHT22;10093;48.148;8.542;2023-02-26T08:36:29;-1.20;99.90
19862;DHT22;10093;48.148;8.542;2023-02-26T08:38:55;-0.30;99.90
19862;DHT22;10093;48.148;8.542;2023-02-26T08:41:21;-0.20;99.90
19862;DHT22;10093;48.148;8.542;2023-02-26T08:43:47;-1.30;99.90
19862;DHT22;10093;48.148;8.542;2023-02-26T08:46:13;-2.20;99.90
19862;DHT22;10093;48.148;8.542;2023-02-26T08:48:38;-2.10;99.90
19862;DHT22;10093;48.148;8.542;2023-02-26T08:51:04;-2.10;99.90
19862;DHT22;10093;48.148;8.542;2023-02-26T08:53:30;-2.80;99.90
19862;DHT22;10093;48.148;8.542;2023-02-26T08:55:55;-2.80;99.90
19862;DHT22;10093;48.148;8.542;2023-02-26T08:58:21;-3.00;99.90
19862;DHT22;10093;48.148;8.542;2023-02-26T09:00:47;-3.00;99.90
19862;DHT22;10093;48.148;8.542;2023-02-26T09:03:12;-2.10;99.90
19862;DHT22;10093;48.148;8.542;2023-02-26T09:05:38;-0.40;99.90
19862;DHT22;10093;48.148;8.542;2023-02-26T09:08:05;-0.40;99.90
19862;DHT22;10093;48.148;8.542;2023-02-26T09:10:31;-0.40;99.90
19862;DHT22;10093;48.148;8.542;2023-02-26T09:12:57;-1.40;99.90
19862;DHT22;10093;48.148;8.542;2023-02-26T09:15:23;-2.20;99.90
19862;DHT22;10093;48.148;8.542;2023-02-26T09:17:48;-2.50;99.90
19862;DHT22;10093;48.148;8.542;2023-02-26T09:20:14;-2.10;99.90
19862;DHT22;10093;48.148;8.542;2023-02-26T09:22:40;-2.20;99.90
19862;DHT22;10093;48.148;8.542;2023-02-26T09:25:06;-2.10;99.90
19862;DHT22;10093;48.148;8.542;2023-02-26T09:27:33;-1.30;99.90
19862;DHT22;10093;48.148;8.542;2023-02-26T09:30:00;-0.60;99.90
19862;DHT22;10093;48.148;8.542;2023-02-26T09:32:25;0.00;99.90
19862;DHT22;10093;48.148;8.542;2023-02-26T09:34:51;0.80;99.90
19862;DHT22;10093;48.148;8.542;2023-02-26T09:37:17;1.70;99.90
19862;DHT22;10093;48.148;8.542;2023-02-26T09:39:43;3.20;99.90
19862;DHT22;10093;48.148;8.542;2023-02-26T09:45:26;3.50;99.90
19862;DHT22;10093;48.148;8.542;2023-02-26T09:47:55;1.50;99.90
19862;DHT22;10093;48.148;8.542;2023-02-26T09:50:41;0.50;99.90
19862;DHT22;10093;48.148;8.542;2023-02-26T09:53:33;0.40;99.90
19862;DHT22;10093;48.148;8.542;2023-02-26T09:56:26;0.40;99.90
19862;DHT22;10093;48.148;8.542;2023-02-26T09:58:55;-0.10;99.90
19862;DHT22;10093;48.148;8.542;2023-02-26T10:04:48;-1.60;99.90
19862;DHT22;10093;48.148;8.542;2023-02-26T10:07:45;-1.60;99.90
19862;DHT22;10093;48.148;8.542;2023-02-26T10:10:33;-2.00;99.90
19862;DHT22;10093;48.148;8.542;2023-02-26T10:12:59;-2.10;99.90
19862;DHT22;10093;48.148;8.542;2023-02-26T10:15:29;-2.20;99.90
19862;DHT22;10093;48.148;8.542;2023-02-26T10:18:11;-2.20;99.90
19862;DHT22;10093;48.148;8.542;2023-02-26T10:21:10;-2.40;99.90
19862;DHT22;10093;48.148;8.542;2023-02-26T10:23:42;-2.50;99.90
19862;DHT22;10093;48.148;8.542;2023-02-26T10:34:38;-2.30;99.90
19862;DHT22;10093;48.148;8.542;2023-02-26T10:40:16;-2.40;99.90
19862;DHT22;10093;48.148;8.542;2023-02-26T10:42:50;-2.40;99.90
19862;DHT22;10093;48.148;8.542;2023-02-26T10:51:14;-2.10;99.90
19862;DHT22;10093;48.148;8.542;2023-02-26T10:53:43;-1.80;99.90
19862;DHT22;10093;48.148;8.542;2023-02-26T10:58:38;-1.10;99.90
19862;DHT22;10093;48.148;8.542;2023-02-26T11:01:12;-0.60;99.90
19862;DHT22;10093;48.148;8.542;2023-02-26T11:03:41;-0.20;99.90
19862;DHT22;10093;48.148;8.542;2023-02-26T11:06:23;0.20;99.90
19862;DHT22;10093;48.148;8.542;2023-02-26T11:08:52;-0.50;99.90
19862;DHT22;10093;48.148;8.542;2023-02-26T11:11:55;-0.80;99.90
19862;DHT22;10093;48.148;8.542;2023-02-26T11:14:21;-0.40;99.90
19862;DHT22;10093;48.148;8.542;2023-02-26T11:16:53;-0.90;99.90
19862;DHT22;10093;48.148;8.542;2023-02-26T11:19:27;-1.60;99.90
19862;DHT22;10093;48.148;8.542;2023-02-26T11:21:54;-1.60;99.90
19862;DHT22;10093;48.148;8.542;2023-02-26T11:24:33;-1.80;99.90
19862;DHT22;10093;48.148;8.542;2023-02-26T11:27:07;-2.00;99.90
19862;DHT22;10093;48.148;8.542;2023-02-26T11:29:48;-2.10;99.90
19862;DHT22;10093;48.148;8.542;2023-02-26T11:32:20;-1.90;99.90
19862;DHT22;10093;48.148;8.542;2023-02-26T11:34:48;-1.40;99.90
19862;DHT22;10093;48.148;8.542;2023-02-26T11:37:23;-0.90;99.90
19862;DHT22;10093;48.148;8.542;2023-02-26T11:39:56;-1.10;99.90
19862;DHT22;10093;48.148;8.542;2023-02-26T11:42:22;-1.30;99.90
19862;DHT22;10093;48.148;8.542;2023-02-26T11:44:50;-1.20;99.90
19862;DHT22;10093;48.148;8.542;2023-02-26T11:47:20;-1.20;99.90
19862;DHT22;10093;48.148;8.542;2023-02-26T11:49:59;-1.50;99.90
19862;DHT22;10093;48.148;8.542;2023-02-26T11:52:35;-1.50;99.90
19862;DHT22;10093;48.148;8.542;2023-02-26T11:55:20;-1.70;99.90
19862;DHT22;10093;48.148;8.542;2023-02-26T11:57:51;-1.60;99.90
19862;DHT22;10093;48.148;8.542;2023-02-26T12:00:19;-1.40;99.90
19862;DHT22;10093;48.148;8.542;2023-02-26T12:02:45;-1.40;99.90
19862;DHT22;10093;48.148;8.542;2023-02-26T12:05:15;-1.70;99.90
19862;DHT22;10093;48.148;8.542;2023-02-26T12:07:41;-2.00;99.90
19862;DHT22;10093;48.148;8.542;2023-02-26T12:10:16;-1.90;99.90
19862;DHT22;10093;48.148;8.542;2023-02-26T12:12:56;-2.00;99.90
19862;DHT22;10093;48.148;8.542;2023-02-26T12:15:33;-2.00;99.90
19862;DHT22;10093;48.148;8.542;2023-02-26T12:26:31;-2.00;99.90
19862;DHT22;10093;48.148;8.542;2023-02-26T12:37:29;-2.10;99.90
19862;DHT22;10093;48.148;8.542;2023-02-26T12:42:52;-1.30;99.90
19862;DHT22;10093;48.148;8.542;2023-02-26T12:45:30;-1.50;99.90
19862;DHT22;10093;48.148;8.542;2023-02-26T12:51:00;-0.90;99.90
19862;DHT22;10093;48.148;8.542;2023-02-26T12:53:49;-1.00;99.90
19862;DHT22;10093;48.148;8.542;2023-02-26T13:02:08;-1.20;99.90
19862;DHT22;10093;48.148;8.542;2023-02-26T13:07:55;-1.20;99.90
19862;DHT22;10093;48.148;8.542;2023-02-26T13:18:21;-0.90;99.90
19862;DHT22;10093;48.148;8.542;2023-02-26T13:20:56;-0.30;99.90
19862;DHT22;10093;48.148;8.542;2023-02-26T13:23:30;-0.40;99.90
19862;DHT22;10093;48.148;8.542;2023-02-26T13:26:07;0.10;99.90
19862;DHT22;10093;48.148;8.542;2023-02-26T13:31:20;0.20;99.90
19862;DHT22;10093;48.148;8.542;2023-02-26T13:33:47;0.10;99.90
19862;DHT22;10093;48.148;8.542;2023-02-26T13:36:15;-0.40;99.90
19862;DHT22;10093;48.148;8.542;2023-02-26T13:45:05;-0.30;99.90
19862;DHT22;10093;48.148;8.542;2023-02-26T13:50:29;0.10;99.90
19862;DHT22;10093;48.148;8.542;2023-02-26T13:53:04;1.00;99.90
19862;DHT22;10093;48.148;8.542;2023-02-26T13:55:47;0.60;99.90
19862;DHT22;10093;48.148;8.542;2023-02-26T14:00:58;0.90;99.90
19862;DHT22;10093;48.148;8.542;2023-02-26T14:08:41;0.80;99.90
19862;DHT22;10093;48.148;8.542;2023-02-26T14:16:39;-0.60;99.90
19862;DHT22;10093;48.148;8.542;2023-02-26T14:35:04;-1.70;99.90
19862;DHT22;10093;48.148;8.542;2023-02-26T14:37:32;-1.70;99.90
19862;DHT22;10093;48.148;8.542;2023-02-26T14:42:40;-1.00;99.90
19862;DHT22;10093;48.148;8.542;2023-02-26T14:47:47;-0.60;99.90
19862;DHT22;10093;48.148;8.542;2023-02-26T14:50:19;-0.80;99.90
19862;DHT22;10093;48.148;8.542;2023-02-26T15:07:14;-0.90;99.90
19862;DHT22;10093;48.148;8.542;2023-02-26T15:10:09;-0.90;99.90
19862;DHT22;10093;48.148;8.542;2023-02-26T15:12:57;-1.40;99.90
19862;DHT22;10093;48.148;8.542;2023-02-26T15:15:42;-1.50;99.90
19862;DHT22;10093;48.148;8.542;2023-02-26T15:21:27;-2.20;99.90
19862;DHT22;10093;48.148;8.542;2023-02-26T15:23:56;-2.20;99.90
19862;DHT22;10093;48.148;8.542;2023-02-26T15:26:48;-2.10;99.90
19862;DHT22;10093;48.148;8.542;2023-02-26T15:29:14;-1.90;99.90
19862;DHT22;10093;48.148;8.542;2023-02-26T15:31:56;-1.60;99.90
19862;DHT22;10093;48.148;8.542;2023-02-26T15:34:22;-1.50;99.90
19862;DHT22;10093;48.148;8.542;2023-02-26T15:36:50;-1.30;99.90
19862;DHT22;10093;48.148;8.542;2023-02-26T15:39:17;-0.60;99.90
19862;DHT22;10093;48.148;8.542;2023-02-26T15:41:47;-1.00;99.90
19862;DHT22;10093;48.148;8.542;2023-02-26T15:44:21;-1.20;99.90
19862;DHT22;10093;48.148;8.542;2023-02-26T15:46:55;-1.20;99.90
19862;DHT22;10093;48.148;8.542;2023-02-26T15:49:29;-1.00;99.90
19862;DHT22;10093;48.148;8.542;2023-02-26T15:51:58;-0.70;99.90
19862;DHT22;10093;48.148;8.542;2023-02-26T15:54:32;-0.70;99.90
19862;DHT22;10093;48.148;8.542;2023-02-26T15:57:00;-0.80;99.90
19862;DHT22;10093;48.148;8.542;2023-02-26T15:59:29;-0.90;99.90
19862;DHT22;10093;48.148;8.542;2023-02-26T16:01:55;-1.10;99.90
19862;DHT22;10093;48.148;8.542;2023-02-26T16:04:22;-1.10;99.90
19862;DHT22;10093;48.148;8.542;2023-02-26T16:06:52;-1.00;99.90
19862;DHT22;10093;48.148;8.542;2023-02-26T16:09:26;-1.10;99.90
19862;DHT22;10093;48.148;8.542;2023-02-26T16:11:54;-1.00;99.90
19862;DHT22;10093;48.148;8.542;2023-02-26T16:14:25;-1.30;99.90
19862;DHT22;10093;48.148;8.542;2023-02-26T16:16:53;-1.70;99.90
19862;DHT22;10093;48.148;8.542;2023-02-26T16:22:02;-2.20;99.90
19862;DHT22;10093;48.148;8.542;2023-02-26T16:24:29;-2.30;99.90
19862;DHT22;10093;48.148;8.542;2023-02-26T16:26:59;-2.30;99.90
19862;DHT22;10093;48.148;8.542;2023-02-26T16:29:29;-2.40;99.90
19862;DHT22;10093;48.148;8.542;2023-02-26T16:32:01;-2.30;99.90
19862;DHT22;10093;48.148;8.542;2023-02-26T16:40:17;-2.30;99.90
19862;DHT22;10093;48.148;8.542;2023-02-26T16:42:45;-2.20;99.90
19862;DHT22;10093;48.148;8.542;2023-02-26T16:48:04;-2.30;99.90
19862;DHT22;10093;48.148;8.542;2023-02-26T16:50:33;-2.20;99.90
19862;DHT22;10093;48.148;8.542;2023-02-26T16:53:15;-2.20;99.90
19862;DHT22;10093;48.148;8.542;2023-02-26T16:55:51;-2.10;99.90
19862;DHT22;10093;48.148;8.542;2023-02-26T16:58:18;-2.20;99.90
19862;DHT22;10093;48.148;8.542;2023-02-26T17:00:48;-2.30;99.90
19862;DHT22;10093;48.148;8.542;2023-02-26T17:03:18;-2.40;99.90
19862;DHT22;10093;48.148;8.542;2023-02-26T17:06:09;-2.40;99.90
19862;DHT22;10093;48.148;8.542;2023-02-26T17:08:49;-2.20;99.90
19862;DHT22;10093;48.148;8.542;2023-02-26T17:11:34;-2.30;99.90
19862;DHT22;10093;48.148;8.542;2023-02-26T17:14:08;-2.30;99.90
19862;DHT22;10093;48.148;8.542;2023-02-26T17:16:34;-2.40;99.90
19862;DHT22;10093;48.148;8.542;2023-02-26T17:19:00;-2.40;99.90
19862;DHT22;10093;48.148;8.542;2023-02-26T17:21:27;-2.40;99.90
19862;DHT22;10093;48.148;8.542;2023-02-26T17:23:53;-2.30;99.90
19862;DHT22;10093;48.148;8.542;2023-02-26T17:26:19;-2.30;99.90
19862;DHT22;10093;48.148;8.542;2023-02-26T17:28:45;-2.30;99.90
19862;DHT22;10093;48.148;8.542;2023-02-26T17:31:11;-2.30;99.90
19862;DHT22;10093;48.148;8.542;2023-02-26T17:33:40;-2.30;99.90
19862;DHT22;10093;48.148;8.542;2023-02-26T17:36:06;-2.30;99.90
19862;DHT22;10093;48.148;8.542;2023-02-26T17:38:32;-2.30;99.90
19862;DHT22;10093;48.148;8.542;2023-02-26T17:40:58;-2.30;99.90
19862;DHT22;10093;48.148;8.542;2023-02-26T17:43:24;-2.30;99.90
19862;DHT22;10093;48.148;8.542;2023-02-26T17:45:50;-2.30;99.90
19862;DHT22;10093;48.148;8.542;2023-02-26T17:48:16;-2.30;99.90
19862;DHT22;10093;48.148;8.542;2023-02-26T17:51:00;-2.40;99.90
19862;DHT22;10093;48.148;8.542;2023-02-26T17:53:26;-2.30;99.90
19862;DHT22;10093;48.148;8.542;2023-02-26T17:55:52;-2.30;99.90
19862;DHT22;10093;48.148;8.542;2023-02-26T17:58:30;-2.30;99.90
19862;DHT22;10093;48.148;8.542;2023-02-26T18:00:58;-2.30;99.90
19862;DHT22;10093;48.148;8.542;2023-02-26T18:03:24;-2.40;99.90
19862;DHT22;10093;48.148;8.542;2023-02-26T18:05:51;-2.40;99.90
19862;DHT22;10093;48.148;8.542;2023-02-26T18:08:24;-2.40;99.90
19862;DHT22;10093;48.148;8.542;2023-02-26T18:10:51;-2.40;99.90
19862;DHT22;10093;48.148;8.542;2023-02-26T18:13:17;-2.30;99.90
19862;DHT22;10093;48.148;8.542;2023-02-26T18:15:43;-2.30;99.90
19862;DHT22;10093;48.148;8.542;2023-02-26T18:18:11;-2.50;99.90
19862;DHT22;10093;48.148;8.542;2023-02-26T18:20:37;-2.50;99.90
19862;DHT22;10093;48.148;8.542;2023-02-26T18:23:03;-2.50;99.90
19862;DHT22;10093;48.148;8.542;2023-02-26T18:25:31;-2.50;99.90
19862;DHT22;10093;48.148;8.542;2023-02-26T18:27:57;-2.50;99.90
19862;DHT22;10093;48.148;8.542;2023-02-26T18:30:29;-2.50;99.90
19862;DHT22;10093;48.148;8.542;2023-02-26T18:32:56;-2.50;99.90
19862;DHT22;10093;48.148;8.542;2023-02-26T18:35:26;-2.50;99.90
19862;DHT22;10093;48.148;8.542;2023-02-26T18:37:53;-2.50;99.90
19862;DHT22;10093;48.148;8.542;2023-02-26T18:40:21;-2.40;99.90
19862;DHT22;10093;48.148;8.542;2023-02-26T18:42:47;-2.40;99.90
19862;DHT22;10093;48.148;8.542;2023-02-26T18:45:13;-2.30;99.90
19862;DHT22;10093;48.148;8.542;2023-02-26T18:47:40;-2.30;99.90
19862;DHT22;10093;48.148;8.542;2023-02-26T18:50:07;-2.40;99.90
19862;DHT22;10093;48.148;8.542;2023-02-26T18:52:34;-2.30;99.90
19862;DHT22;10093;48.148;8.542;2023-02-26T18:55:00;-2.30;99.90
19862;DHT22;10093;48.148;8.542;2023-02-26T18:57:28;-2.30;99.90
19862;DHT22;10093;48.148;8.542;2023-02-26T18:59:53;-2.30;99.90
19862;DHT22;10093;48.148;8.542;2023-02-26T19:02:19;-2.30;99.90
19862;DHT22;10093;48.148;8.542;2023-02-26T19:04:45;-2.30;99.90
19862;DHT22;10093;48.148;8.542;2023-02-26T19:07:10;-2.20;99.90